Time;durP1;ratioP1;P1;durP2;ratioP2;P2;SDS_P1;SDS_P2;PMS_P1;PMS_P2;Temp;Humidity;BMP_temperature;BMP_pressure;BME280_temperature;BME280_humidity;BME280_pressure;Samples;Min_cycle;Max_cycle;Signal;HPM_P1;HPM_P2
2023/04/16 00:02:18;;;;;;;30.02;18.52;;;8.80;99.90;;;;;;5017044;28;20028;-69
2023/04/16 00:04:44;;;;;;;29.00;17.85;;;8.70;99.90;;;;;;5015741;28;20933;-69
2023/04/16 00:07:10;;;;;;;30.73;17.75;;;8.70;99.90;;;;;;5015230;28;20034;-68
2023/04/16 00:09:36;;;;;;;33.83;18.02;;;8.70;99.90;;;;;;5012558;28;20040;-70
2023/04/16 00:12:03;;;;;;;30.50;17.27;;;8.70;99.90;;;;;;5014843;28;20462;-69
2023/04/16 00:14:29;;;;;;;24.35;16.48;;;8.60;99.90;;;;;;5011651;28;20674;-70
2023/04/16 00:16:54;;;;;;;31.65;17.85;;;8.60;99.90;;;;;;5016484;28;20117;-68
2023/04/16 00:19:20;;;;;;;27.88;16.77;;;8.60;99.90;;;;;;5014822;28;20460;-71
2023/04/16 00:21:46;;;;;;;27.67;17.27;;;8.60;99.90;;;;;;5018983;28;20048;-69
2023/04/16 00:24:12;;;;;;;27.60;17.17;;;8.60;99.90;;;;;;5007446;28;20054;-71
2023/04/16 00:26:37;;;;;;;28.92;16.65;;;8.50;99.90;;;;;;5017160;28;20444;-67
2023/04/16 00:29:03;;;;;;;26.95;16.65;;;8.60;99.90;;;;;;5044165;28;20038;-68
2023/04/16 00:31:30;;;;;;;27.27;16.45;;;8.60;99.90;;;;;;5016717;28;20029;-68
2023/04/16 00:33:57;;;;;;;29.70;16.90;;;8.60;99.90;;;;;;5013557;28;20040;-67
2023/04/16 00:36:24;;;;;;;28.75;16.73;;;8.50;99.90;;;;;;5012583;28;20029;-68
2023/04/16 00:38:50;;;;;;;29.05;17.58;;;8.50;99.90;;;;;;5014854;28;20473;-67
2023/04/16 00:41:16;;;;;;;27.77;15.90;;;8.50;99.90;;;;;;5013067;28;20239;-68
2023/04/16 00:43:42;;;;;;;25.45;16.75;;;8.60;99.90;;;;;;4995701;28;20399;-68
2023/04/16 00:46:08;;;;;;;24.30;15.60;;;8.60;99.90;;;;;;5010713;28;20044;-68
2023/04/16 00:48:36;;;;;;;30.52;16.50;;;8.50;99.90;;;;;;5011921;28;20029;-69
2023/04/16 00:51:04;;;;;;;29.35;16.77;;;8.40;99.90;;;;;;5013801;28;20292;-68
2023/04/16 00:53:31;;;;;;;26.90;16.33;;;8.40;99.90;;;;;;5012709;28;20045;-68
2023/04/16 00:55:57;;;;;;;25.90;16.58;;;8.50;99.90;;;;;;5011767;28;20057;-69
2023/04/16 00:58:26;;;;;;;25.00;15.82;;;8.60;99.90;;;;;;5017192;28;20108;-69
2023/04/16 01:00:52;;;;;;;26.65;16.02;;;8.50;99.90;;;;;;4994372;28;20045;-71
2023/04/16 01:03:17;;;;;;;29.17;16.40;;;8.50;99.90;;;;;;5011903;28;20025;-69
2023/04/16 01:05:44;;;;;;;26.13;16.63;;;8.50;99.90;;;;;;5013838;28;20114;-67
2023/04/16 01:08:17;;;;;;;25.35;15.75;;;8.50;99.90;;;;;;5014840;28;20030;-67
2023/04/16 01:10:44;;;;;;;28.60;16.92;;;8.50;99.90;;;;;;5012898;28;20030;-68
2023/04/16 01:13:09;;;;;;;26.33;16.58;;;8.60;99.90;;;;;;5012780;28;20468;-68
2023/04/16 01:15:36;;;;;;;27.38;16.25;;;8.50;99.90;;;;;;5013999;28;20116;-68
2023/04/16 01:18:01;;;;;;;27.35;16.45;;;8.50;99.90;;;;;;5013164;28;20052;-68
2023/04/16 01:20:28;;;;;;;25.08;16.27;;;8.50;99.90;;;;;;5016764;28;20112;-68
2023/04/16 01:22:53;;;;;;;24.80;15.48;;;8.50;99.90;;;;;;5014108;28;20065;-68
2023/04/16 01:25:19;;;;;;;28.52;17.02;;;8.60;99.90;;;;;;5017705;28;20501;-71
2023/04/16 01:27:48;;;;;;;23.90;15.35;;;8.60;99.90;;;;;;5015145;28;20164;-69
2023/04/16 01:30:14;;;;;;;22.70;15.15;;;8.60;99.90;;;;;;5030624;28;20419;-70
2023/04/16 01:32:40;;;;;;;28.23;16.02;;;8.70;99.90;;;;;;5013381;28;20044;-70
2023/04/16 01:35:05;;;;;;;24.02;14.90;;;8.60;99.90;;;;;;5012727;28;20033;-70
2023/04/16 01:37:32;;;;;;;24.48;15.25;;;8.60;99.90;;;;;;4997869;28;20029;-70
2023/04/16 01:40:01;;;;;;;24.52;14.73;;;8.60;99.90;;;;;;5013991;28;20141;-70
2023/04/16 01:42:27;;;;;;;24.67;14.50;;;8.50;99.90;;;;;;5015214;28;20026;-70
2023/04/16 01:44:52;;;;;;;26.30;14.75;;;8.60;99.90;;;;;;5012858;28;20029;-70
2023/04/16 01:47:18;;;;;;;27.42;14.77;;;8.60;99.90;;;;;;5017693;28;20021;-68
2023/04/16 01:49:46;;;;;;;22.05;14.45;;;8.60;99.90;;;;;;5014246;28;20103;-70
2023/04/16 01:52:12;;;;;;;27.63;15.73;;;8.70;99.90;;;;;;5012597;28;20026;-70
2023/04/16 01:54:38;;;;;;;23.92;15.00;;;8.70;99.90;;;;;;5005965;28;20417;-68
2023/04/16 01:57:03;;;;;;;23.90;14.73;;;8.70;99.90;;;;;;5017002;28;20049;-68
2023/04/16 01:59:29;;;;;;;25.13;14.82;;;8.70;99.90;;;;;;5015881;28;20041;-70
2023/04/16 02:02:07;;;;;;;24.75;15.15;;;8.70;99.90;;;;;;5014405;28;20162;-68
2023/04/16 02:04:32;;;;;;;26.08;15.60;;;8.70;99.90;;;;;;5013527;28;20026;-69
2023/04/16 02:06:58;;;;;;;23.08;13.75;;;8.70;99.90;;;;;;5015457;28;20071;-70
2023/04/16 02:09:24;;;;;;;24.70;14.45;;;8.70;99.90;;;;;;5015420;28;20332;-71
2023/04/16 02:11:49;;;;;;;23.10;14.50;;;8.70;99.90;;;;;;5010900;28;20442;-69
2023/04/16 02:14:15;;;;;;;25.60;16.42;;;8.70;99.90;;;;;;5012053;28;20124;-69
2023/04/16 02:16:41;;;;;;;24.25;14.52;;;8.70;99.90;;;;;;5019275;28;20036;-69
2023/04/16 02:19:07;;;;;;;22.45;14.25;;;8.70;99.90;;;;;;5018216;28;20827;-69
2023/04/16 02:21:32;;;;;;;22.08;13.73;;;8.70;99.90;;;;;;5019792;28;20116;-71
2023/04/16 02:23:58;;;;;;;24.85;14.30;;;8.80;99.90;;;;;;5018330;28;20080;-69
2023/04/16 02:26:25;;;;;;;28.77;14.57;;;8.80;99.90;;;;;;5018162;28;20512;-71
2023/04/16 02:28:51;;;;;;;23.00;14.75;;;8.80;99.90;;;;;;5018580;28;20108;-70
2023/04/16 02:31:18;;;;;;;25.05;13.90;;;8.80;99.90;;;;;;5015816;28;20164;-69
2023/04/16 02:33:44;;;;;;;22.05;14.98;;;8.80;99.90;;;;;;5018119;28;20448;-70
2023/04/16 02:36:10;;;;;;;21.33;13.82;;;8.90;99.90;;;;;;5014703;28;20034;-70
2023/04/16 02:38:36;;;;;;;21.83;14.52;;;8.90;99.90;;;;;;5015690;28;20034;-69
2023/04/16 02:41:02;;;;;;;21.63;14.20;;;8.90;99.90;;;;;;5015992;28;20034;-67
2023/04/16 02:43:27;;;;;;;23.35;15.57;;;8.90;99.90;;;;;;5016550;28;20102;-68
2023/04/16 02:45:53;;;;;;;26.35;15.52;;;8.90;99.90;;;;;;5016475;28;20587;-69
2023/04/16 02:48:19;;;;;;;26.80;14.80;;;8.80;99.90;;;;;;5015468;28;20133;-70
2023/04/16 02:50:44;;;;;;;26.08;16.23;;;8.80;99.90;;;;;;5015460;28;20750;-70
2023/04/16 02:53:10;;;;;;;27.20;15.73;;;8.80;99.90;;;;;;5012910;28;20037;-69
2023/04/16 02:55:36;;;;;;;27.33;16.42;;;8.80;99.90;;;;;;5014193;28;20489;-69
2023/04/16 02:58:01;;;;;;;27.05;16.98;;;8.80;99.90;;;;;;5017379;28;20037;-70
2023/04/16 03:00:27;;;;;;;27.30;16.88;;;8.80;99.90;;;;;;5018943;28;20034;-71
2023/04/16 03:02:53;;;;;;;25.02;16.02;;;8.80;99.90;;;;;;5017013;28;20072;-67
2023/04/16 03:05:18;;;;;;;25.83;15.73;;;8.80;99.90;;;;;;5014235;28;20083;-67
2023/04/16 03:07:44;;;;;;;25.50;16.15;;;8.80;99.90;;;;;;5011795;28;20061;-67
2023/04/16 03:10:12;;;;;;;26.52;16.75;;;8.80;99.90;;;;;;5048259;28;20045;-69
2023/04/16 03:12:38;;;;;;;24.40;15.30;;;8.80;99.90;;;;;;5013164;28;20034;-70
2023/04/16 03:15:04;;;;;;;28.55;16.13;;;8.90;99.90;;;;;;5033336;28;20113;-68
2023/04/16 03:17:29;;;;;;;23.20;15.32;;;8.90;99.90;;;;;;5019134;28;20041;-67
2023/04/16 03:19:55;;;;;;;26.73;15.93;;;8.90;99.90;;;;;;5015504;28;20026;-67
2023/04/16 03:22:21;;;;;;;27.50;16.58;;;8.80;99.90;;;;;;5017378;28;20134;-67
2023/04/16 03:24:47;;;;;;;25.63;15.68;;;8.80;99.90;;;;;;5018422;28;20022;-68
2023/04/16 03:27:12;;;;;;;25.17;17.35;;;8.90;99.90;;;;;;5020205;28;20112;-67
2023/04/16 03:29:38;;;;;;;27.75;16.70;;;8.90;99.90;;;;;;5029120;28;20038;-70
2023/04/16 03:32:04;;;;;;;27.45;16.38;;;8.90;99.90;;;;;;5058180;28;20049;-72
2023/04/16 03:34:30;;;;;;;26.75;16.85;;;8.90;99.90;;;;;;5029101;28;20033;-67
2023/04/16 03:36:55;;;;;;;26.75;16.25;;;8.90;99.90;;;;;;5023000;28;20029;-67
2023/04/16 03:39:21;;;;;;;28.50;16.88;;;8.90;99.90;;;;;;5017526;28;20079;-68
2023/04/16 03:41:47;;;;;;;33.75;18.45;;;8.90;99.90;;;;;;5016868;28;20037;-67
2023/04/16 03:44:12;;;;;;;27.13;16.13;;;8.90;99.90;;;;;;5012819;28;21697;-69
2023/04/16 03:46:38;;;;;;;24.90;16.45;;;8.90;99.90;;;;;;5015908;28;20033;-72
2023/04/16 03:49:04;;;;;;;31.65;17.33;;;8.90;99.90;;;;;;5013157;28;20508;-70
2023/04/16 03:51:29;;;;;;;28.55;15.70;;;8.90;99.90;;;;;;5017870;28;20038;-69
2023/04/16 03:53:55;;;;;;;27.67;17.40;;;9.00;99.90;;;;;;5011164;28;20061;-69
2023/04/16 03:56:21;;;;;;;24.92;16.88;;;9.00;99.90;;;;;;5015452;28;20036;-71
2023/04/16 03:58:46;;;;;;;26.02;16.45;;;9.00;99.90;;;;;;5014987;28;20029;-70
2023/04/16 04:01:12;;;;;;;28.98;17.73;;;9.00;99.90;;;;;;5014808;28;20041;-69
2023/04/16 04:03:37;;;;;;;30.40;16.58;;;9.00;99.90;;;;;;5045488;28;20512;-68
2023/04/16 04:06:09;;;;;;;26.58;17.15;;;9.00;99.90;;;;;;5011784;28;20561;-68
2023/04/16 04:08:35;;;;;;;28.85;16.75;;;9.00;99.90;;;;;;5015823;28;20034;-68
2023/04/16 04:11:00;;;;;;;21.63;14.30;;;9.00;99.90;;;;;;5014766;28;20117;-70
2023/04/16 04:13:26;;;;;;;23.90;15.90;;;9.20;99.90;;;;;;5015855;28;20030;-68
2023/04/16 04:15:52;;;;;;;27.25;16.00;;;9.80;99.90;;;;;;5014224;28;20532;-68
2023/04/16 04:18:17;;;;;;;25.25;16.30;;;9.50;99.90;;;;;;5018259;28;20064;-70
2023/04/16 04:20:43;;;;;;;27.38;16.77;;;9.30;99.90;;;;;;5016443;28;20064;-68
2023/04/16 04:23:09;;;;;;;27.73;16.90;;;9.20;99.90;;;;;;5014508;28;20409;-69
2023/04/16 04:25:35;;;;;;;25.42;17.23;;;9.20;99.90;;;;;;5020397;28;20033;-70
2023/04/16 04:28:01;;;;;;;27.35;17.08;;;9.10;99.90;;;;;;5017922;28;20053;-71
2023/04/16 04:30:26;;;;;;;25.88;16.88;;;9.10;99.90;;;;;;5016863;28;20021;-71
2023/04/16 04:32:52;;;;;;;28.77;16.83;;;9.10;99.90;;;;;;5016262;28;20025;-69
2023/04/16 04:35:18;;;;;;;26.35;16.02;;;9.10;99.90;;;;;;5018750;28;20022;-71
2023/04/16 04:37:44;;;;;;;27.55;16.73;;;9.10;99.90;;;;;;5016744;28;20790;-69
2023/04/16 04:40:10;;;;;;;24.25;16.23;;;9.10;99.90;;;;;;5016209;28;20025;-68
2023/04/16 04:42:37;;;;;;;25.75;16.63;;;9.10;99.90;;;;;;5016625;28;20495;-68
2023/04/16 04:45:04;;;;;;;27.75;16.85;;;9.10;99.90;;;;;;5016646;28;20048;-70
2023/04/16 04:47:30;;;;;;;23.77;16.10;;;9.00;99.90;;;;;;5015718;28;20363;-67
2023/04/16 04:49:55;;;;;;;25.83;16.17;;;9.10;99.90;;;;;;5016467;28;20048;-69
2023/04/16 04:52:21;;;;;;;25.48;16.25;;;9.10;99.90;;;;;;5016921;28;20478;-68
2023/04/16 04:54:47;;;;;;;27.70;17.10;;;9.00;99.90;;;;;;5017479;28;20040;-70
2023/04/16 04:57:12;;;;;;;27.98;16.27;;;9.10;99.90;;;;;;5002306;28;20367;-68
2023/04/16 04:59:39;;;;;;;24.42;15.50;;;9.10;99.90;;;;;;5011817;28;20038;-68
2023/04/16 05:02:05;;;;;;;25.52;15.38;;;9.10;99.90;;;;;;5006337;28;20029;-68
2023/04/16 05:04:30;;;;;;;27.20;15.45;;;9.10;99.90;;;;;;5014243;28;20524;-70
2023/04/16 05:06:56;;;;;;;26.98;16.30;;;9.10;99.90;;;;;;5015854;28;20082;-68
2023/04/16 05:09:22;;;;;;;24.65;16.48;;;9.10;99.90;;;;;;5013670;28;20087;-68
2023/04/16 05:11:48;;;;;;;24.25;16.15;;;9.10;99.90;;;;;;5016244;28;20568;-68
2023/04/16 05:14:13;;;;;;;25.65;15.55;;;9.10;99.90;;;;;;5012472;28;20045;-68
2023/04/16 05:16:39;;;;;;;24.20;16.02;;;9.20;99.90;;;;;;5014517;28;20423;-69
2023/04/16 05:19:05;;;;;;;27.23;17.20;;;9.10;99.90;;;;;;5015774;28;20407;-70
2023/04/16 05:21:31;;;;;;;24.55;16.40;;;9.10;99.90;;;;;;5017907;28;20032;-70
2023/04/16 05:23:59;;;;;;;25.63;17.05;;;9.20;99.90;;;;;;5017875;28;20022;-69
2023/04/16 05:26:25;;;;;;;25.98;16.08;;;9.20;99.90;;;;;;5022109;28;20102;-69
2023/04/16 05:28:51;;;;;;;25.02;15.98;;;9.20;99.90;;;;;;5016559;28;20080;-66
2023/04/16 05:31:16;;;;;;;25.58;16.92;;;9.30;99.90;;;;;;5016589;28;20029;-66
2023/04/16 05:33:42;;;;;;;24.58;16.35;;;9.30;99.90;;;;;;5019356;28;20506;-67
2023/04/16 05:36:08;;;;;;;27.50;16.02;;;9.20;99.90;;;;;;5014090;28;20097;-69
2023/04/16 05:38:33;;;;;;;25.63;17.13;;;9.20;99.90;;;;;;5020109;28;20034;-70
2023/04/16 05:40:59;;;;;;;25.60;16.02;;;9.20;99.90;;;;;;5017679;28;20026;-67
2023/04/16 05:43:25;;;;;;;28.08;16.67;;;9.20;99.90;;;;;;5034414;28;20867;-67
2023/04/16 05:45:50;;;;;;;27.45;17.60;;;9.20;99.90;;;;;;5019782;28;20030;-70
2023/04/16 05:48:16;;;;;;;27.83;16.67;;;9.20;99.90;;;;;;5014638;28;20022;-69
2023/04/16 05:50:42;;;;;;;28.25;17.05;;;9.20;99.90;;;;;;5018483;28;20041;-67
2023/04/16 05:53:08;;;;;;;27.92;17.83;;;9.20;99.90;;;;;;5051058;28;20018;-68
2023/04/16 05:55:37;;;;;;;28.80;17.95;;;9.30;99.90;;;;;;5016585;28;20506;-69
2023/04/16 05:58:03;;;;;;;28.17;16.15;;;9.30;99.90;;;;;;5018753;28;20762;-67
2023/04/16 06:00:32;;;;;;;24.08;16.42;;;9.30;99.90;;;;;;5020211;28;20486;-70
2023/04/16 06:02:58;;;;;;;25.67;16.33;;;9.30;99.90;;;;;;5021182;28;20029;-69
2023/04/16 06:05:25;;;;;;;28.67;17.25;;;9.30;99.90;;;;;;5016803;28;20493;-67
2023/04/16 06:07:51;;;;;;;25.17;16.70;;;9.30;99.90;;;;;;5015445;28;20482;-67
2023/04/16 06:10:17;;;;;;;28.52;17.33;;;9.40;99.90;;;;;;5017071;28;20037;-69
2023/04/16 06:12:43;;;;;;;25.55;16.02;;;9.40;99.90;;;;;;5008508;28;20411;-68
2023/04/16 06:15:09;;;;;;;30.58;17.35;;;9.30;99.90;;;;;;5013428;28;20041;-68
2023/04/16 06:17:35;;;;;;;28.00;16.27;;;9.30;99.90;;;;;;5013930;28;20041;-70
2023/04/16 06:20:00;;;;;;;24.02;16.52;;;9.40;99.90;;;;;;5019169;28;20029;-70
2023/04/16 06:22:26;;;;;;;26.08;16.40;;;9.40;99.90;;;;;;5015502;28;20511;-68
2023/04/16 06:24:52;;;;;;;29.08;17.67;;;9.40;99.90;;;;;;5018346;28;20040;-70
2023/04/16 06:27:18;;;;;;;24.40;15.52;;;9.40;99.90;;;;;;5013155;28;20041;-73
2023/04/16 06:29:44;;;;;;;26.35;17.20;;;9.50;99.90;;;;;;5024128;28;20037;-69
2023/04/16 06:32:09;;;;;;;25.10;15.98;;;9.40;99.90;;;;;;5018869;28;20052;-68
2023/04/16 06:34:37;;;;;;;30.67;17.58;;;9.60;99.90;;;;;;5016275;28;20033;-70
2023/04/16 06:37:03;;;;;;;27.08;17.30;;;9.50;99.90;;;;;;5008720;28;20606;-68
2023/04/16 06:39:29;;;;;;;26.10;16.23;;;9.50;99.90;;;;;;4996890;28;20203;-70
2023/04/16 06:41:54;;;;;;;26.00;16.45;;;9.50;99.90;;;;;;5015287;28;20017;-69
2023/04/16 06:44:20;;;;;;;26.77;16.75;;;9.50;99.90;;;;;;5016410;28;20055;-71
2023/04/16 06:46:46;;;;;;;34.17;16.98;;;9.50;99.90;;;;;;5015981;28;20123;-71
2023/04/16 06:49:12;;;;;;;25.17;16.52;;;9.50;99.90;;;;;;5014477;28;20037;-68
2023/04/16 06:51:37;;;;;;;24.85;16.73;;;9.60;99.90;;;;;;5014925;28;20139;-68
2023/04/16 06:54:05;;;;;;;27.58;16.65;;;9.50;99.90;;;;;;5015634;28;20033;-67
2023/04/16 06:56:31;;;;;;;29.23;17.00;;;9.50;99.90;;;;;;5013425;28;20390;-68
2023/04/16 06:58:57;;;;;;;26.90;16.73;;;9.50;99.90;;;;;;5012674;28;20025;-68
2023/04/16 07:01:25;;;;;;;26.73;16.67;;;9.50;99.90;;;;;;5010990;28;20112;-68
2023/04/16 07:03:51;;;;;;;29.38;17.25;;;9.50;99.90;;;;;;5013516;28;20034;-70
2023/04/16 07:06:16;;;;;;;26.92;16.80;;;9.50;99.90;;;;;;5018401;28;20029;-69
2023/04/16 07:08:42;;;;;;;27.40;17.38;;;9.50;99.90;;;;;;5016401;28;20517;-70
2023/04/16 07:11:08;;;;;;;24.40;15.60;;;9.50;99.90;;;;;;5018886;28;20034;-73
2023/04/16 07:13:34;;;;;;;24.48;16.08;;;9.50;99.90;;;;;;5048191;28;20037;-67
2023/04/16 07:16:01;;;;;;;27.40;15.88;;;9.50;99.90;;;;;;5011779;28;20030;-70
2023/04/16 07:18:26;;;;;;;29.13;17.25;;;9.60;99.90;;;;;;5012732;28;20033;-70
2023/04/16 07:20:52;;;;;;;27.30;15.52;;;9.60;99.90;;;;;;4997188;28;20037;-70
2023/04/16 07:23:18;;;;;;;22.77;14.73;;;9.60;99.90;;;;;;4999218;28;20026;-68
2023/04/16 07:25:45;;;;;;;47.55;15.63;;;9.70;99.90;;;;;;5015635;28;20028;-68
2023/04/16 07:28:11;;;;;;;24.00;15.30;;;9.70;99.90;;;;;;5012922;28;20022;-70
2023/04/16 07:30:37;;;;;;;28.17;17.20;;;9.80;99.90;;;;;;5015773;28;20112;-72
2023/04/16 07:33:03;;;;;;;25.33;15.98;;;9.80;99.90;;;;;;5014391;28;20034;-70
2023/04/16 07:35:29;;;;;;;23.08;14.77;;;9.80;99.90;;;;;;5016948;28;20026;-72
2023/04/16 07:37:55;;;;;;;26.92;16.73;;;9.80;99.90;;;;;;5019622;28;20026;-69
2023/04/16 07:40:22;;;;;;;26.80;15.15;;;9.80;99.90;;;;;;5019208;28;20036;-68
2023/04/16 07:42:55;;;;;;;23.67;15.60;;;9.90;99.90;;;;;;5023681;28;20026;-68
2023/04/16 07:45:22;;;;;;;23.88;14.88;;;10.00;99.90;;;;;;5011757;28;20120;-68
2023/04/16 07:47:47;;;;;;;29.20;16.13;;;10.00;99.90;;;;;;5012631;28;20026;-68
2023/04/16 07:50:13;;;;;;;24.95;16.33;;;10.00;99.90;;;;;;5016667;28;20497;-68
2023/04/16 07:52:41;;;;;;;24.15;14.63;;;10.00;99.90;;;;;;5037478;28;20021;-68
2023/04/16 07:55:10;;;;;;;25.08;15.02;;;10.00;99.90;;;;;;5015715;28;20398;-69
2023/04/16 07:57:35;;;;;;;22.73;14.93;;;10.00;99.90;;;;;;5017408;28;20083;-69
2023/04/16 08:00:03;;;;;;;20.38;14.75;;;10.00;99.90;;;;;;5007340;28;20034;-67
2023/04/16 08:02:29;;;;;;;23.63;13.95;;;10.00;99.90;;;;;;5043663;28;20034;-70
2023/04/16 08:04:55;;;;;;;24.70;14.85;;;10.10;99.90;;;;;;5013881;28;20091;-70
2023/04/16 08:07:21;;;;;;;23.30;14.35;;;10.10;99.90;;;;;;5018881;28;20057;-69
2023/04/16 08:09:49;;;;;;;27.13;15.68;;;10.10;99.90;;;;;;5013547;28;20065;-68
2023/04/16 08:12:16;;;;;;;26.15;14.77;;;10.10;99.90;;;;;;5009060;28;20037;-68
2023/04/16 08:14:43;;;;;;;22.05;14.43;;;10.10;99.90;;;;;;5012729;28;20057;-70
2023/04/16 08:17:10;;;;;;;22.45;13.70;;;10.10;99.90;;;;;;5012633;28;20034;-68
2023/04/16 08:19:36;;;;;;;19.63;13.10;;;10.20;99.90;;;;;;5016507;28;20493;-68
2023/04/16 08:22:01;;;;;;;21.80;14.88;;;10.20;99.90;;;;;;5015889;28;20079;-68
2023/04/16 08:24:27;;;;;;;23.15;14.40;;;10.20;99.90;;;;;;5015492;28;20030;-68
2023/04/16 08:26:53;;;;;;;24.48;15.25;;;10.30;99.90;;;;;;5013505;28;20109;-68
2023/04/16 08:29:19;;;;;;;20.20;13.57;;;10.40;99.90;;;;;;5010500;28;20116;-70
2023/04/16 08:31:45;;;;;;;21.00;14.13;;;10.40;99.90;;;;;;5007408;28;20057;-68
2023/04/16 08:34:12;;;;;;;24.02;15.65;;;10.20;99.90;;;;;;5008598;28;20038;-70
2023/04/16 08:36:39;;;;;;;22.63;14.07;;;10.30;99.90;;;;;;5012723;28;20026;-70
2023/04/16 08:39:05;;;;;;;20.13;13.80;;;10.30;99.90;;;;;;5018295;28;20065;-68
2023/04/16 08:41:33;;;;;;;21.75;13.75;;;10.30;99.90;;;;;;5016318;28;20106;-68
2023/04/16 08:44:13;;;;;;;23.83;13.65;;;10.40;99.90;;;;;;5016073;28;20887;-68
2023/04/16 08:46:40;;;;;;;25.95;14.20;;;10.50;99.90;;;;;;5010315;28;20085;-71
2023/04/16 08:49:07;;;;;;;22.45;13.95;;;10.40;99.90;;;;;;5013609;28;20034;-69
2023/04/16 08:51:34;;;;;;;21.83;13.70;;;10.40;99.90;;;;;;5015109;28;20084;-68
2023/04/16 08:54:07;;;;;;;19.48;12.23;;;10.40;99.90;;;;;;5016404;28;20844;-68
2023/04/16 08:56:36;;;;;;;20.42;13.70;;;10.40;99.90;;;;;;5014963;28;20532;-69
2023/04/16 08:59:04;;;;;;;23.02;14.38;;;10.40;99.90;;;;;;5014831;28;20056;-71
2023/04/16 09:01:34;;;;;;;24.77;14.63;;;10.40;99.90;;;;;;5013830;28;20026;-69
2023/04/16 09:04:00;;;;;;;20.80;13.38;;;10.50;99.90;;;;;;5013633;28;20473;-69
2023/04/16 09:06:30;;;;;;;21.45;13.40;;;10.60;99.90;;;;;;5014925;28;20029;-68
2023/04/16 09:08:58;;;;;;;22.48;13.82;;;10.70;99.90;;;;;;5014348;28;20052;-70
2023/04/16 09:11:24;;;;;;;17.50;12.40;;;10.70;99.90;;;;;;5003680;28;20025;-67
2023/04/16 09:13:51;;;;;;;20.00;12.98;;;10.90;99.90;;;;;;5028700;28;20167;-68
2023/04/16 09:16:19;;;;;;;19.63;13.10;;;10.90;99.90;;;;;;5028500;28;20516;-71
2023/04/16 09:18:46;;;;;;;19.42;13.65;;;11.00;99.90;;;;;;5010290;28;20026;-68
2023/04/16 09:21:13;;;;;;;20.38;12.77;;;10.90;99.90;;;;;;5025303;28;20037;-68
2023/04/16 09:23:39;;;;;;;24.50;14.02;;;10.90;99.90;;;;;;5020910;28;20040;-70
2023/04/16 09:26:05;;;;;;;24.08;13.20;;;11.00;99.90;;;;;;5015707;28;20034;-68
2023/04/16 09:28:52;;;;;;;22.45;13.82;;;11.10;99.90;;;;;;5015977;28;20032;-68
2023/04/16 09:31:18;;;;;;;18.58;12.75;;;11.10;99.90;;;;;;5037097;28;20117;-69
2023/04/16 09:34:07;;;;;;;20.05;13.70;;;11.20;99.90;;;;;;5016654;28;20076;-67
2023/04/16 09:36:34;;;;;;;20.77;13.52;;;11.20;99.90;;;;;;5014668;28;20033;-67
2023/04/16 09:39:01;;;;;;;18.23;12.25;;;11.30;99.90;;;;;;5016916;28;20585;-67
2023/04/16 09:41:29;;;;;;;23.02;13.75;;;11.30;99.90;;;;;;5017777;28;20107;-74
2023/04/16 09:43:57;;;;;;;22.00;13.48;;;11.30;99.90;;;;;;5008995;28;20041;-68
2023/04/16 09:46:50;;;;;;;19.80;13.18;;;11.10;99.90;;;;;;5015687;28;20309;-68
2023/04/16 09:49:19;;;;;;;18.98;13.75;;;11.20;99.90;;;;;;5014146;28;20052;-71
2023/04/16 09:51:51;;;;;;;20.73;12.95;;;11.30;99.90;;;;;;5015612;28;20044;-68
2023/04/16 09:54:18;;;;;;;19.95;13.10;;;11.20;99.90;;;;;;5014255;28;20075;-70
2023/04/16 09:56:48;;;;;;;21.27;13.95;;;11.20;99.90;;;;;;5017402;28;20033;-68
2023/04/16 09:59:18;;;;;;;21.08;12.88;;;11.20;99.90;;;;;;5014025;28;20116;-67
2023/04/16 10:01:48;;;;;;;17.13;12.90;;;11.20;99.90;;;;;;5013440;28;20037;-70
2023/04/16 10:04:14;;;;;;;19.77;12.60;;;11.10;99.90;;;;;;5016269;28;20029;-68
2023/04/16 10:06:40;;;;;;;25.17;14.82;;;11.20;99.90;;;;;;5014708;28;20019;-68
2023/04/16 10:09:07;;;;;;;22.73;12.75;;;11.30;99.90;;;;;;5016395;28;20398;-74
2023/04/16 10:11:33;;;;;;;18.88;13.48;;;11.30;99.90;;;;;;4995468;28;20037;-69
2023/04/16 10:13:59;;;;;;;20.38;13.02;;;11.30;99.90;;;;;;5014273;28;20100;-69
2023/04/16 10:16:25;;;;;;;17.63;12.93;;;11.20;99.90;;;;;;5017302;28;20504;-74
2023/04/16 10:18:53;;;;;;;21.17;12.88;;;11.20;99.90;;;;;;5020949;28;20073;-68
2023/04/16 10:21:20;;;;;;;19.88;12.02;;;11.30;99.90;;;;;;5017711;28;20030;-70
2023/04/16 10:23:48;;;;;;;19.02;13.00;;;11.40;99.90;;;;;;5019473;28;20398;-70
2023/04/16 10:26:17;;;;;;;19.00;13.07;;;11.40;99.90;;;;;;5013902;28;20037;-68
2023/04/16 10:28:44;;;;;;;19.80;12.20;;;11.40;99.90;;;;;;5012373;28;20044;-67
2023/04/16 10:31:11;;;;;;;19.20;13.80;;;11.50;99.90;;;;;;5013927;28;20571;-70
2023/04/16 10:33:43;;;;;;;18.45;13.32;;;11.50;99.90;;;;;;5010884;28;20069;-69
2023/04/16 10:36:22;;;;;;;20.23;12.30;;;11.50;99.90;;;;;;5012530;28;20105;-70
2023/04/16 10:38:55;;;;;;;18.73;12.77;;;11.50;99.90;;;;;;5014740;28;20029;-70
2023/04/16 10:41:21;;;;;;;18.27;12.43;;;11.40;99.90;;;;;;5015404;28;20026;-71
2023/04/16 10:43:49;;;;;;;19.67;13.15;;;11.40;99.90;;;;;;5013490;28;20493;-70
2023/04/16 10:46:19;;;;;;;21.48;13.30;;;11.40;99.90;;;;;;5016529;28;20061;-69
2023/04/16 10:48:46;;;;;;;19.42;12.57;;;11.50;99.90;;;;;;5018403;28;20053;-69
2023/04/16 10:51:34;;;;;;;20.80;12.48;;;11.50;99.90;;;;;;5020681;28;20022;-70
2023/04/16 10:54:13;;;;;;;19.05;13.00;;;11.40;99.90;;;;;;5017591;28;20029;-70
2023/04/16 10:56:39;;;;;;;20.95;13.27;;;11.60;99.90;;;;;;5021421;28;20033;-69
2023/04/16 10:59:12;;;;;;;21.35;12.45;;;11.70;99.90;;;;;;5017697;28;20037;-69
2023/04/16 11:01:46;;;;;;;19.13;13.25;;;11.70;99.90;;;;;;5009207;28;20045;-69
2023/04/16 11:04:18;;;;;;;19.75;12.57;;;11.50;99.90;;;;;;5014824;28;20053;-70
2023/04/16 11:07:01;;;;;;;17.50;12.35;;;11.50;99.90;;;;;;5013351;28;20029;-70
2023/04/16 11:09:52;;;;;;;802.28;445.40;;;11.50;99.90;;;;;;5018701;28;20033;-70
2023/04/16 11:12:19;;;;;;;238.57;125.63;;;11.60;99.90;;;;;;5011896;28;20029;-68
2023/04/16 11:14:53;;;;;;;31.30;21.17;;;11.60;99.90;;;;;;5046354;28;20320;-68
2023/04/16 11:17:20;;;;;;;19.67;13.98;;;11.50;99.90;;;;;;4993185;28;20022;-69
2023/04/16 11:19:46;;;;;;;21.48;12.57;;;11.50;99.90;;;;;;5014778;28;20038;-67
2023/04/16 11:22:16;;;;;;;18.98;13.07;;;11.60;99.90;;;;;;5006223;28;20387;-71
2023/04/16 11:24:46;;;;;;;18.27;13.27;;;11.60;99.90;;;;;;5016362;28;20092;-71
2023/04/16 11:27:16;;;;;;;20.60;13.27;;;11.50;99.90;;;;;;5015455;28;20022;-72
2023/04/16 11:29:42;;;;;;;21.73;14.18;;;11.40;99.90;;;;;;5013678;28;20034;-70
2023/04/16 11:32:08;;;;;;;22.00;13.93;;;11.30;99.90;;;;;;5018974;28;20029;-70
2023/04/16 11:34:46;;;;;;;20.42;14.48;;;11.30;99.90;;;;;;5011567;28;20029;-70
2023/04/16 11:37:13;;;;;;;22.20;13.55;;;11.30;99.90;;;;;;5006274;28;20120;-70
2023/04/16 11:39:51;;;;;;;20.33;14.05;;;11.40;99.90;;;;;;5008877;28;20041;-68
2023/04/16 11:42:21;;;;;;;23.80;14.35;;;11.40;99.90;;;;;;5011482;28;20036;-68
2023/04/16 11:44:54;;;;;;;20.40;13.45;;;11.30;99.90;;;;;;5014820;28;20632;-68
2023/04/16 11:47:22;;;;;;;20.30;14.07;;;11.30;99.90;;;;;;5015432;28;20030;-70
2023/04/16 11:49:48;;;;;;;20.70;13.00;;;11.30;99.90;;;;;;4999044;28;20112;-71
2023/04/16 11:52:26;;;;;;;31.23;16.02;;;11.30;99.90;;;;;;5014377;28;20029;-70
2023/04/16 11:54:52;;;;;;;21.55;14.55;;;11.30;99.90;;;;;;5013513;28;20034;-70
2023/04/16 11:57:30;;;;;;;22.40;13.93;;;11.30;99.90;;;;;;5008702;28;20048;-70
2023/04/16 11:59:57;;;;;;;19.40;12.68;;;11.40;99.90;;;;;;5007596;28;20095;-69
2023/04/16 12:02:43;;;;;;;26.60;14.38;;;11.40;99.90;;;;;;5016050;28;20174;-69
2023/04/16 12:05:27;;;;;;;18.60;12.50;;;11.60;99.90;;;;;;5016014;28;20025;-71
2023/04/16 12:07:54;;;;;;;18.80;13.00;;;11.60;99.90;;;;;;5012569;28;20041;-69
2023/04/16 12:10:19;;;;;;;19.65;12.75;;;11.50;99.90;;;;;;4998967;28;21045;-71
2023/04/16 12:12:45;;;;;;;23.02;13.77;;;11.50;99.90;;;;;;5007707;28;20034;-73
2023/04/16 12:15:11;;;;;;;21.17;13.45;;;11.50;99.90;;;;;;5011751;28;20536;-76
2023/04/16 12:17:38;;;;;;;15.07;11.75;;;11.50;99.90;;;;;;5016641;28;20029;-77
2023/04/16 12:20:11;;;;;;;18.83;12.90;;;11.40;99.90;;;;;;5017228;28;20462;-71
2023/04/16 12:22:45;;;;;;;17.73;12.77;;;11.40;99.90;;;;;;5015385;28;20021;-74
2023/04/16 12:25:13;;;;;;;17.83;11.98;;;11.40;99.90;;;;;;5017015;28;20033;-71
2023/04/16 12:27:46;;;;;;;17.38;11.75;;;11.30;99.90;;;;;;5010999;28;20033;-72
2023/04/16 12:30:16;;;;;;;20.60;12.75;;;11.20;99.90;;;;;;5011299;28;20032;-73
2023/04/16 12:32:43;;;;;;;20.58;12.75;;;11.20;99.90;;;;;;5017825;28;20482;-71
2023/04/16 12:35:10;;;;;;;17.88;11.93;;;11.10;99.90;;;;;;5013872;28;20053;-71